KSUS/SUS METAR and TAF weather

Enter ICAO airport designator
Station Type Date Time Source
KSUS METAR 2021/01/17 18:54 UTC NOAA

KSUS 171854Z 27012KT 10SM SCT025 BKN075 OVC085 03/M04 A2981 RMK AO2 SLP099 T00281039


Station Type Date Time Source
KSUS Decoded METAR 2021/01/17 18:54 UTC NOAA

SPIRIT OF ST. LOUIS AIRPORT , MO, United States (KSUS) 38-39N 090-39W 141M
Jan 17, 2021 - 01:54 PM EST / 2021.01.17 1854 UTC
Wind: from the W (270 degrees) at 14 MPH (12 KT):0
Visibility: 10 mile(s):0
Sky conditions: overcast
Temperature: 37.0 F (2.8 C)
Dew Point: 25.0 F (-3.9 C)
Relative Humidity: 61%
Pressure (altimeter): 29.81 in. Hg (1009 hPa)
ob: KSUS 171854Z 27012KT 10SM SCT025 BKN075 OVC085 03/M04 A2981 RMK AO2 SLP099 T00281039
cycle: 19

Station Type Date Time Source
KSUS TAF 2021/01/17 19:48 UTC NOAA

TAF
AMD KSUS 171846Z 1719/1818 28012KT P6SM SCT021
FM172000 28009KT 3SM -SN OVC015
FM172300 28009KT P6SM OVC018
FM181500 26007KT P6SM BKN040

Example: see airport list